Terminal Aerodrome Forecast
Issued by NWS

Home | Current Version | Previous Version | Text Only | Print | Product List | Glossary On
Versions: 1 2 3 4 5 6 7 8 9 10 11 12 13 14
000
FTUS44 KEPZ 180000 CCA
TAFDMN
TAF COR
KDMN 180030Z 1800/1824 06011KT P6SM -SHRA SCT015 BKN025
      TEMPO 1800/1802 1SM +TSRA BKN015CB
     FM180500 05008KT 6SM -SHRA SCT008 BKN015 OVC025
      TEMPO 1806/1810 2SM +SHRA BKN008
     FM181700 05008KT 6SM -SHRA SCT015 BKN025 OVC040=

USA.gov is the U.S. government's official web portal to all federal, state and local government web resources and services.